Terminal Aerodrome Forecast
Issued by NWS Charleston, WV

Current Version | Previous Version | Text Only | Print | Product List | Glossary Off
Versions: 1 2 3 4 5 6 7 8 9 10 11 12 13 14 15 16 17 18 19 20 21 22 23 24 25 26 27 28

000
FTUS41 KRLX 030910 AAB
TAFEKN
TAF AMD
KEKN 030910Z 0309/0406 00000KT 6SM -RA BR SCT015 OVC035
     FM031100 00000KT 4SM BR BKN008 OVC015
     FM031700 29005KT P6SM BKN012
     FM032000 27006KT P6SM BKN015=

USA.gov is the U.S. government's official web portal to all federal, state and local government web resources and services.